Time;durP1;ratioP1;P1;durP2;ratioP2;P2;SDS_P1;SDS_P2;PMS_P1;PMS_P2;Temp;Humidity;BMP_temperature;BMP_pressure;BME280_temperature;BME280_humidity;BME280_pressure;Samples;Min_cycle;Max_cycle;Signal;HPM_P1;HPM_P2
2021/01/28 00:00:29;;;;;;;10.77;5.97;;;2.00;99.90;;;;;;5014469;28;20175;-64
2021/01/28 00:02:57;;;;;;;8.68;7.53;;;2.00;99.90;;;;;;5014463;28;20301;-65
2021/01/28 00:05:27;;;;;;;9.95;8.93;;;2.10;99.90;;;;;;5014141;28;20246;-64
2021/01/28 00:07:54;;;;;;;5.55;5.07;;;2.10;99.90;;;;;;5013143;28;20194;-63
2021/01/28 00:10:22;;;;;;;18.23;7.20;;;2.20;99.90;;;;;;5012935;28;20712;-66
2021/01/28 00:12:49;;;;;;;9.77;6.80;;;2.20;99.90;;;;;;5014433;28;20216;-64
2021/01/28 00:15:25;;;;;;;11.25;7.53;;;2.20;99.90;;;;;;5014184;28;20587;-64
2021/01/28 00:17:56;;;;;;;8.65;7.13;;;2.10;99.90;;;;;;5013598;28;20221;-64
2021/01/28 00:20:26;;;;;;;9.48;5.90;;;2.20;99.90;;;;;;5013853;28;20170;-66
2021/01/28 00:22:54;;;;;;;9.38;6.53;;;2.20;99.90;;;;;;5012820;28;20321;-66
2021/01/28 00:25:22;;;;;;;8.98;7.97;;;2.20;99.90;;;;;;5014052;28;20217;-65
2021/01/28 00:27:50;;;;;;;11.60;9.90;;;2.20;99.90;;;;;;5012785;28;20202;-65
2021/01/28 00:30:22;;;;;;;10.88;8.63;;;2.20;99.90;;;;;;5013430;28;20189;-67
2021/01/28 00:32:49;;;;;;;8.60;5.55;;;2.10;99.90;;;;;;5013625;28;20210;-65
2021/01/28 00:35:25;;;;;;;12.27;6.35;;;2.10;99.90;;;;;;5013418;28;20186;-65
2021/01/28 00:37:52;;;;;;;8.70;6.70;;;2.20;99.90;;;;;;5013397;28;20284;-65
2021/01/28 00:40:20;;;;;;;11.18;6.15;;;2.20;99.90;;;;;;5012551;28;20209;-66
2021/01/28 00:42:49;;;;;;;12.45;6.82;;;2.20;99.90;;;;;;5013419;28;20214;-66
2021/01/28 00:45:17;;;;;;;8.55;6.05;;;2.20;99.90;;;;;;5013175;28;20201;-67
2021/01/28 00:47:45;;;;;;;8.70;6.43;;;2.20;99.90;;;;;;5013412;28;20240;-65
2021/01/28 00:50:14;;;;;;;11.60;10.35;;;2.30;99.90;;;;;;5013302;28;20555;-65
2021/01/28 00:52:42;;;;;;;13.68;9.05;;;2.20;99.90;;;;;;5011961;28;20280;-65
2021/01/28 00:55:13;;;;;;;12.10;9.60;;;2.20;99.90;;;;;;5012943;28;20201;-65
2021/01/28 00:57:45;;;;;;;11.75;8.30;;;2.30;99.90;;;;;;5011611;28;20237;-64
2021/01/28 01:00:16;;;;;;;10.32;8.00;;;2.30;99.90;;;;;;5011634;28;20186;-66
2021/01/28 01:02:45;;;;;;;10.73;9.63;;;2.30;99.90;;;;;;5011570;28;20297;-66
2021/01/28 01:05:15;;;;;;;10.50;7.78;;;2.30;99.90;;;;;;5013143;28;20183;-65
2021/01/28 01:07:45;;;;;;;8.35;6.10;;;2.20;99.90;;;;;;5012737;28;20682;-66
2021/01/28 01:10:22;;;;;;;13.93;9.77;;;2.30;99.90;;;;;;5012905;28;20198;-65
2021/01/28 01:12:49;;;;;;;17.13;9.40;;;2.30;99.90;;;;;;5012728;28;20209;-65
2021/01/28 01:15:17;;;;;;;14.57;10.18;;;2.30;99.90;;;;;;5011458;28;20290;-68
2021/01/28 01:17:44;;;;;;;16.05;9.50;;;2.40;99.90;;;;;;5012425;28;20206;-66
2021/01/28 01:20:15;;;;;;;11.80;8.50;;;2.40;99.90;;;;;;5011489;28;20190;-66
2021/01/28 01:22:43;;;;;;;14.20;7.55;;;2.40;99.90;;;;;;5011344;28;20230;-65
2021/01/28 01:25:14;;;;;;;15.13;8.95;;;2.30;99.90;;;;;;5011527;28;20260;-65
2021/01/28 01:27:42;;;;;;;10.32;7.53;;;2.40;99.90;;;;;;5013428;28;20218;-64
2021/01/28 01:30:31;;;;;;;13.80;8.68;;;2.30;99.90;;;;;;5013548;28;20252;-65
2021/01/28 01:32:58;;;;;;;14.02;9.55;;;2.30;99.90;;;;;;5012226;28;20230;-64
2021/01/28 01:35:33;;;;;;;20.00;11.80;;;2.30;99.90;;;;;;5011527;28;20221;-62
2021/01/28 01:38:05;;;;;;;13.73;10.45;;;2.30;99.90;;;;;;5011114;28;20589;-64
2021/01/28 01:40:34;;;;;;;11.60;8.80;;;2.40;99.90;;;;;;5011147;28;20292;-64
2021/01/28 01:43:03;;;;;;;12.80;9.10;;;2.30;99.90;;;;;;5011929;28;20210;-65
2021/01/28 01:45:36;;;;;;;15.95;8.68;;;2.40;99.90;;;;;;5011023;28;20190;-64
2021/01/28 01:48:08;;;;;;;12.60;7.78;;;2.40;99.90;;;;;;5011854;28;20307;-65
2021/01/28 01:50:51;;;;;;;11.57;7.38;;;2.40;99.90;;;;;;5012065;28;20228;-64
2021/01/28 01:53:23;;;;;;;8.40;6.10;;;2.40;99.90;;;;;;5012013;28;20201;-65
2021/01/28 01:55:55;;;;;;;10.05;7.70;;;2.50;99.90;;;;;;5010485;28;20228;-64
2021/01/28 01:58:33;;;;;;;14.27;7.53;;;2.50;99.90;;;;;;5010474;28;20433;-63
2021/01/28 02:01:24;;;;;;;10.73;7.88;;;2.60;99.90;;;;;;5011916;28;20746;-65
2021/01/28 02:04:12;;;;;;;7.10;5.90;;;2.60;99.90;;;;;;5012001;28;20225;-65
2021/01/28 02:07:18;;;;;;;9.55;6.85;;;2.50;99.90;;;;;;4970620;28;20195;-66
2021/01/28 02:10:08;;;;;;;11.77;7.78;;;2.50;99.90;;;;;;5009989;28;20233;-64
2021/01/28 02:12:55;;;;;;;7.78;6.18;;;2.60;99.90;;;;;;5011607;28;20210;-64
2021/01/28 02:15:25;;;;;;;13.63;6.60;;;2.60;99.90;;;;;;5010576;28;20198;-64
2021/01/28 02:17:57;;;;;;;9.80;6.70;;;2.60;99.90;;;;;;5010605;28;20233;-65
2021/01/28 02:20:53;;;;;;;8.63;6.97;;;2.60;99.90;;;;;;5012549;28;20244;-63
2021/01/28 02:23:51;;;;;;;9.60;6.82;;;2.60;99.90;;;;;;5011144;28;20218;-63
2021/01/28 02:26:28;;;;;;;12.82;8.30;;;2.60;99.90;;;;;;5011360;28;20681;-64
2021/01/28 02:29:01;;;;;;;9.43;6.05;;;2.60;99.90;;;;;;5010326;28;20197;-66
2021/01/28 02:31:30;;;;;;;11.48;6.95;;;2.70;99.90;;;;;;5010346;28;20403;-66
2021/01/28 02:34:00;;;;;;;11.98;6.30;;;2.70;99.90;;;;;;5010405;28;20631;-65
2021/01/28 02:36:48;;;;;;;15.43;8.75;;;2.60;99.90;;;;;;5010761;28;20209;-64
2021/01/28 02:39:38;;;;;;;12.80;8.10;;;2.70;99.90;;;;;;5040690;22;20239;-64
2021/01/28 02:42:21;;;;;;;14.38;9.35;;;2.70;99.90;;;;;;5032448;28;20196;-64
2021/01/28 02:48:55;;;;;;;14.10;8.40;;;2.80;99.90;;;;;;5012619;28;20185;-65
2021/01/28 02:51:44;;;;;;;12.00;10.20;;;2.80;99.90;;;;;;5012266;28;20654;-63
2021/01/28 02:54:19;;;;;;;15.57;8.45;;;2.90;99.90;;;;;;5012004;28;20217;-63
2021/01/28 02:56:47;;;;;;;15.93;10.68;;;2.90;99.90;;;;;;5011760;28;20213;-62
2021/01/28 02:59:15;;;;;;;17.10;9.45;;;2.90;99.90;;;;;;5030583;28;20178;-63
2021/01/28 03:01:45;;;;;;;11.40;8.00;;;2.90;99.90;;;;;;5014267;28;20248;-62
2021/01/28 03:04:14;;;;;;;12.50;8.02;;;2.90;99.90;;;;;;5015869;28;20619;-64
2021/01/28 03:06:55;;;;;;;11.15;8.18;;;2.90;99.90;;;;;;5033995;28;20662;-62
2021/01/28 03:09:25;;;;;;;12.63;7.90;;;2.90;99.90;;;;;;5033336;28;20201;-62
2021/01/28 03:12:14;;;;;;;15.40;9.27;;;2.90;99.90;;;;;;5031937;28;20194;-63
2021/01/28 03:14:57;;;;;;;17.55;9.18;;;3.00;99.90;;;;;;5032429;28;20223;-63
2021/01/28 03:17:25;;;;;;;9.75;7.75;;;3.00;99.90;;;;;;5033475;28;20717;-62
2021/01/28 03:19:57;;;;;;;10.15;6.28;;;3.00;99.90;;;;;;5032402;28;20200;-60
2021/01/28 03:22:25;;;;;;;10.82;9.15;;;3.00;99.90;;;;;;5032199;28;20670;-63
2021/01/28 03:25:28;;;;;;;7.70;6.10;;;3.10;99.90;;;;;;4972392;28;20579;-65
2021/01/28 03:27:56;;;;;;;10.50;7.70;;;3.10;99.90;;;;;;5056207;22;20318;-76
2021/01/28 03:30:28;;;;;;;8.00;5.63;;;3.10;99.90;;;;;;5055538;28;20209;-75
2021/01/28 03:32:56;;;;;;;9.98;7.20;;;3.10;99.90;;;;;;5055249;28;20193;-76
2021/01/28 03:35:25;;;;;;;12.82;7.95;;;3.10;99.90;;;;;;5056399;28;20201;-76
2021/01/28 03:37:54;;;;;;;15.05;10.30;;;3.10;99.90;;;;;;5054581;28;20769;-76
2021/01/28 03:40:23;;;;;;;10.38;8.38;;;3.20;99.90;;;;;;5054564;28;20223;-75
2021/01/28 03:42:53;;;;;;;13.07;8.68;;;3.20;99.90;;;;;;5054960;28;20192;-76
2021/01/28 03:45:20;;;;;;;18.95;10.32;;;3.20;99.90;;;;;;5054616;28;20197;-77
2021/01/28 03:47:48;;;;;;;13.93;9.05;;;3.10;99.90;;;;;;5054130;28;20189;-77
2021/01/28 03:50:27;;;;;;;14.57;8.15;;;3.20;99.90;;;;;;5055121;28;20200;-77
2021/01/28 03:53:11;;;;;;;16.17;8.10;;;3.10;99.90;;;;;;5054412;28;20199;-76
2021/01/28 03:55:54;;;;;;;8.27;6.65;;;3.20;99.90;;;;;;5054701;28;20705;-76
2021/01/28 03:58:21;;;;;;;11.75;8.82;;;3.20;99.90;;;;;;5054682;28;20209;-75
2021/01/28 04:01:09;;;;;;;17.30;11.57;;;3.20;99.90;;;;;;5054710;28;20284;-76
2021/01/28 04:03:38;;;;;;;9.25;8.20;;;3.20;99.90;;;;;;5053830;28;20559;-76
2021/01/28 04:06:15;;;;;;;13.40;8.77;;;3.20;99.90;;;;;;5054579;28;20250;-76
2021/01/28 04:09:01;;;;;;;7.70;6.18;;;3.20;99.90;;;;;;5055144;28;20224;-76
2021/01/28 04:11:48;;;;;;;10.27;7.55;;;3.20;99.90;;;;;;5055471;28;20550;-76
2021/01/28 04:14:30;;;;;;;15.75;7.70;;;3.20;99.90;;;;;;5053705;28;20185;-77
2021/01/28 04:16:58;;;;;;;15.50;7.30;;;3.30;99.90;;;;;;5053684;28;20199;-77
2021/01/28 04:19:26;;;;;;;11.75;8.35;;;3.30;99.90;;;;;;5054303;28;20208;-77
2021/01/28 04:21:53;;;;;;;13.30;9.43;;;3.30;99.90;;;;;;5054857;28;20572;-75
2021/01/28 04:24:20;;;;;;;10.95;9.63;;;3.30;99.90;;;;;;5058487;28;20200;-75
2021/01/28 04:26:55;;;;;;;12.13;10.25;;;3.30;99.90;;;;;;5054922;28;20577;-75
2021/01/28 04:29:43;;;;;;;13.30;8.43;;;3.30;99.90;;;;;;5053754;28;20282;-76
2021/01/28 04:32:33;;;;;;;9.27;7.60;;;3.30;99.90;;;;;;5055323;28;20283;-77
2021/01/28 04:35:40;;;;;;;10.35;5.22;;;3.40;99.90;;;;;;5055313;28;20699;-76
2021/01/28 04:38:08;;;;;;;12.98;8.20;;;3.40;99.90;;;;;;5055364;28;20255;-75
2021/01/28 04:40:45;;;;;;;14.07;9.13;;;3.40;99.90;;;;;;5055786;28;20296;-75
2021/01/28 04:43:21;;;;;;;11.60;7.78;;;3.40;99.90;;;;;;5056268;28;20991;-77
2021/01/28 04:45:59;;;;;;;18.92;10.57;;;3.40;99.90;;;;;;5062201;28;20261;-76
2021/01/28 04:48:28;;;;;;;16.08;10.57;;;3.40;99.90;;;;;;5068885;28;20189;-76
2021/01/28 04:51:13;;;;;;;9.88;8.00;;;3.40;99.90;;;;;;5068641;28;20547;-76
2021/01/28 04:53:52;;;;;;;18.40;8.20;;;3.50;99.90;;;;;;5069279;28;20195;-76
2021/01/28 04:56:27;;;;;;;10.95;7.97;;;3.50;99.90;;;;;;5068569;28;20196;-76
2021/01/28 04:59:21;;;;;;;13.15;9.02;;;3.50;99.90;;;;;;5068288;28;20607;-76
2021/01/28 05:01:51;;;;;;;10.95;8.38;;;3.40;99.90;;;;;;5066176;28;20192;-75
2021/01/28 05:04:42;;;;;;;17.15;12.38;;;3.50;99.90;;;;;;5066959;28;20189;-75
2021/01/28 05:07:47;;;;;;;16.13;9.52;;;3.50;99.90;;;;;;5067911;28;20195;-76
2021/01/28 05:10:41;;;;;;;12.68;8.38;;;3.50;99.90;;;;;;5055204;28;20211;-76
2021/01/28 05:13:30;;;;;;;11.02;7.63;;;3.50;99.90;;;;;;5055741;28;20199;-75
2021/01/28 05:16:25;;;;;;;15.82;9.20;;;3.50;99.90;;;;;;5042984;28;20204;-75
2021/01/28 05:19:13;;;;;;;17.80;8.40;;;3.50;99.90;;;;;;5055638;28;20586;-76
2021/01/28 05:22:18;;;;;;;18.58;10.40;;;3.60;99.90;;;;;;5056961;28;20550;-76
2021/01/28 05:25:16;;;;;;;11.70;8.77;;;3.60;99.90;;;;;;5052692;28;20201;-76
2021/01/28 05:27:59;;;;;;;22.73;10.15;;;3.60;99.90;;;;;;5053824;28;20200;-76
2021/01/28 05:30:40;;;;;;;13.77;8.70;;;3.70;99.90;;;;;;5052969;28;20218;-75
2021/01/28 05:33:25;;;;;;;12.32;9.40;;;3.70;99.90;;;;;;5058056;28;20188;-76
2021/01/28 05:36:17;;;;;;;13.48;9.07;;;3.70;99.90;;;;;;5050117;28;20199;-76
2021/01/28 05:39:20;;;;;;;12.00;9.30;;;3.80;99.90;;;;;;5052817;28;20212;-77
2021/01/28 05:41:51;;;;;;;14.35;8.00;;;3.80;99.90;;;;;;5053291;28;20181;-77
2021/01/28 05:44:27;;;;;;;14.48;7.03;;;3.80;99.90;;;;;;5052272;28;20185;-77
2021/01/28 05:47:04;;;;;;;17.10;8.55;;;3.90;99.90;;;;;;5051993;28;20737;-76
2021/01/28 05:49:52;;;;;;;21.45;10.50;;;3.80;99.90;;;;;;5085704;28;20312;-76
2021/01/28 05:52:27;;;;;;;15.43;7.82;;;3.80;99.90;;;;;;5052020;28;20213;-75
2021/01/28 05:55:16;;;;;;;16.80;9.85;;;3.80;99.90;;;;;;5085025;28;20200;-77
2021/01/28 05:57:58;;;;;;;11.73;6.70;;;3.90;99.90;;;;;;5085368;28;20223;-76
2021/01/28 06:00:38;;;;;;;12.73;10.90;;;3.90;99.90;;;;;;5081086;28;20224;-76
2021/01/28 06:03:38;;;;;;;17.60;10.35;;;4.00;99.90;;;;;;5052121;28;20200;-76
2021/01/28 06:06:55;;;;;;;14.75;8.23;;;3.90;99.90;;;;;;5048390;28;20237;-75
2021/01/28 06:09:58;;;;;;;13.95;9.95;;;3.90;99.90;;;;;;5052508;28;20224;-76
2021/01/28 06:12:44;;;;;;;20.40;10.63;;;3.90;99.90;;;;;;5068906;28;20196;-76
2021/01/28 06:15:38;;;;;;;14.07;7.75;;;3.90;99.90;;;;;;5051760;28;20208;-76
2021/01/28 06:18:42;;;;;;;17.58;10.20;;;3.90;99.90;;;;;;5025587;28;20216;-75
2021/01/28 06:21:57;;;;;;;23.00;10.73;;;3.90;99.90;;;;;;5051667;28;20196;-76
2021/01/28 06:25:24;;;;;;;13.75;10.13;;;3.90;99.90;;;;;;5052995;28;20188;-76
2021/01/28 06:28:22;;;;;;;17.33;11.35;;;3.90;99.90;;;;;;5051537;28;20216;-74
2021/01/28 06:31:15;;;;;;;15.05;8.75;;;3.90;99.90;;;;;;5068064;28;20209;-76
2021/01/28 06:34:14;;;;;;;13.07;7.50;;;4.00;99.90;;;;;;5052588;28;20557;-76
2021/01/28 06:37:20;;;;;;;14.43;10.30;;;3.90;99.90;;;;;;5052651;28;20180;-76
2021/01/28 06:40:17;;;;;;;15.07;8.65;;;3.90;99.90;;;;;;5045890;28;20247;-75
2021/01/28 06:43:08;;;;;;;19.08;8.63;;;3.90;99.90;;;;;;5056237;28;20184;-76
2021/01/28 06:45:58;;;;;;;12.73;9.50;;;3.90;99.90;;;;;;5056606;28;20681;-75
2021/01/28 06:48:41;;;;;;;11.15;7.07;;;3.90;99.90;;;;;;5054797;28;20355;-75
2021/01/28 06:51:25;;;;;;;11.48;7.32;;;3.90;99.90;;;;;;5072430;28;20275;-74
2021/01/28 06:54:00;;;;;;;5.63;4.28;;;3.90;99.90;;;;;;5071318;28;20180;-75
2021/01/28 06:56:57;;;;;;;8.90;4.38;;;3.80;99.90;;;;;;5056483;28;20184;-75
2021/01/28 07:00:04;;;;;;;8.07;4.70;;;3.70;99.90;;;;;;5055797;28;20729;-75
2021/01/28 07:02:46;;;;;;;8.52;5.07;;;3.70;99.90;;;;;;5055585;28;20565;-74
2021/01/28 07:05:46;;;;;;;6.63;3.95;;;3.60;99.90;;;;;;5055316;28;20188;-76
2021/01/28 07:08:45;;;;;;;4.93;3.55;;;3.50;99.90;;;;;;5071834;28;20181;-76
2021/01/28 07:11:33;;;;;;;5.60;3.42;;;3.50;99.90;;;;;;5054949;28;20212;-75
2021/01/28 07:14:19;;;;;;;7.88;5.53;;;3.50;99.90;;;;;;5056225;28;20254;-76
2021/01/28 07:17:08;;;;;;;7.60;2.70;;;3.40;99.90;;;;;;5071714;28;20204;-75
2021/01/28 07:19:39;;;;;;;4.97;2.75;;;3.40;99.90;;;;;;5057013;28;20658;-75
2021/01/28 07:22:25;;;;;;;6.70;3.38;;;3.40;99.90;;;;;;5071615;28;20197;-76
2021/01/28 07:25:21;;;;;;;4.10;2.15;;;3.40;99.90;;;;;;5054517;28;20660;-75
2021/01/28 07:27:56;;;;;;;2.53;2.03;;;3.40;99.90;;;;;;5055990;28;20284;-77
2021/01/28 07:30:36;;;;;;;4.75;2.72;;;3.40;99.90;;;;;;5056464;28;20292;-76
2021/01/28 07:33:03;;;;;;;35.65;24.13;;;3.30;99.90;;;;;;5057027;28;20250;-77
2021/01/28 07:35:47;;;;;;;6.35;4.55;;;3.30;99.90;;;;;;5071775;28;20196;-76
2021/01/28 07:38:42;;;;;;;6.53;4.50;;;3.30;99.90;;;;;;5072339;28;20291;-75
2021/01/28 07:41:55;;;;;;;4.93;3.85;;;3.20;99.90;;;;;;5014955;28;20285;-76
2021/01/28 07:44:44;;;;;;;8.77;5.57;;;3.20;99.90;;;;;;5054660;28;20265;-76
2021/01/28 07:47:48;;;;;;;7.85;5.82;;;3.20;99.90;;;;;;5054698;28;20185;-76
2021/01/28 07:50:27;;;;;;;8.98;6.75;;;3.30;99.90;;;;;;5071076;28;20216;-76
2021/01/28 07:53:18;;;;;;;15.85;7.70;;;3.30;99.90;;;;;;5055807;28;20180;-76
2021/01/28 07:55:46;;;;;;;9.43;6.13;;;3.30;99.90;;;;;;5055614;28;20234;-76
2021/01/28 07:58:24;;;;;;;10.77;5.40;;;3.30;99.90;;;;;;5055802;28;20216;-76
2021/01/28 08:00:52;;;;;;;11.10;8.77;;;3.30;99.90;;;;;;5056441;28;20316;-75
2021/01/28 08:03:34;;;;;;;8.80;5.93;;;3.30;99.90;;;;;;5071504;28;20227;-77
2021/01/28 08:06:10;;;;;;;9.23;4.32;;;3.30;99.90;;;;;;5055655;28;20192;-75
2021/01/28 08:08:37;;;;;;;8.23;5.00;;;3.30;99.90;;;;;;5055773;28;20743;-75
2021/01/28 08:11:18;;;;;;;6.43;5.00;;;3.30;99.90;;;;;;5054739;28;20613;-76
2021/01/28 08:13:46;;;;;;;8.27;5.60;;;3.30;99.90;;;;;;5055911;28;20192;-76
2021/01/28 08:16:19;;;;;;;8.60;5.30;;;3.20;99.90;;;;;;5054708;28;20223;-76
2021/01/28 08:19:01;;;;;;;7.85;4.13;;;3.20;99.90;;;;;;5057132;28;20218;-77
2021/01/28 08:21:30;;;;;;;6.05;4.88;;;3.20;99.90;;;;;;5057270;28;20189;-77
2021/01/28 08:24:10;;;;;;;10.18;5.07;;;3.20;99.90;;;;;;5056375;28;20222;-76
2021/01/28 08:26:42;;;;;;;5.05;3.85;;;3.30;99.90;;;;;;5056198;28;20258;-76
2021/01/28 08:29:15;;;;;;;7.60;5.70;;;3.40;99.90;;;;;;5055812;28;20204;-76
2021/01/28 08:31:44;;;;;;;10.00;4.47;;;3.40;99.90;;;;;;5054352;28;20311;-76
2021/01/28 08:34:18;;;;;;;7.00;5.50;;;3.40;99.90;;;;;;5055616;28;20188;-77
2021/01/28 08:36:49;;;;;;;6.25;4.32;;;3.40;99.90;;;;;;5055645;28;20181;-75
2021/01/28 08:39:19;;;;;;;4.13;2.88;;;3.30;99.90;;;;;;5054800;28;20220;-74
2021/01/28 08:42:00;;;;;;;7.60;4.60;;;3.30;99.90;;;;;;5054698;28;20173;-74
2021/01/28 08:44:27;;;;;;;5.65;3.47;;;3.30;99.90;;;;;;5055220;28;20173;-75
2021/01/28 08:47:05;;;;;;;9.10;4.68;;;3.30;99.90;;;;;;5055957;28;20653;-75
2021/01/28 08:49:33;;;;;;;5.82;4.60;;;3.30;99.90;;;;;;5054527;28;20201;-75
2021/01/28 08:52:03;;;;;;;7.10;4.93;;;3.40;99.90;;;;;;5054953;28;20196;-74
2021/01/28 08:54:32;;;;;;;10.18;5.75;;;3.30;99.90;;;;;;5055257;28;20260;-74
2021/01/28 08:57:01;;;;;;;5.40;3.45;;;3.30;99.90;;;;;;5055426;28;20527;-75
2021/01/28 08:59:32;;;;;;;6.47;4.65;;;3.30;99.90;;;;;;5055984;28;20232;-77
2021/01/28 09:02:02;;;;;;;12.10;6.13;;;3.20;99.90;;;;;;5055614;28;20200;-74
2021/01/28 09:04:32;;;;;;;6.22;4.30;;;3.20;99.90;;;;;;5057149;28;20172;-73
2021/01/28 09:06:59;;;;;;;4.85;3.15;;;3.20;99.90;;;;;;5054568;28;20177;-74
2021/01/28 09:09:29;;;;;;;5.50;3.42;;;3.20;99.90;;;;;;5065445;28;20199;-78
2021/01/28 09:12:23;;;;;;;7.70;4.78;;;3.20;99.90;;;;;;5066397;28;20196;-71
2021/01/28 09:14:51;;;;;;;5.50;4.10;;;3.20;99.90;;;;;;5057801;28;20193;-71
2021/01/28 09:17:25;;;;;;;6.45;3.28;;;3.10;99.90;;;;;;5073130;28;20189;-72
2021/01/28 09:19:55;;;;;;;9.80;6.50;;;3.10;99.90;;;;;;5072909;28;20254;-74
2021/01/28 09:22:30;;;;;;;5.95;3.92;;;3.20;99.90;;;;;;5067671;28;20253;-72
2021/01/28 09:24:57;;;;;;;7.93;4.72;;;3.20;99.90;;;;;;5060967;28;20219;-70
2021/01/28 09:27:35;;;;;;;5.50;3.60;;;3.20;99.90;;;;;;5075188;28;20282;-69
2021/01/28 09:30:20;;;;;;;9.55;4.60;;;3.20;99.90;;;;;;5071598;28;20220;-71
2021/01/28 09:32:47;;;;;;;5.60;3.97;;;3.20;99.90;;;;;;5053910;28;20569;-71
2021/01/28 09:35:20;;;;;;;7.60;4.05;;;3.10;99.90;;;;;;5053362;28;20263;-71
